Time;durP1;ratioP1;P1;durP2;ratioP2;P2;SDS_P1;SDS_P2;PMS_P1;PMS_P2;Temp;Humidity;BMP_temperature;BMP_pressure;BME280_temperature;BME280_humidity;BME280_pressure;Samples;Min_cycle;Max_cycle;Signal;HPM_P1;HPM_P2
2022/02/15 00:02:18;;;;;;;9.05;3.25;;;;;;;;;;1584285;28;10023460;-69
2022/02/15 00:04:47;;;;;;;5.28;3.15;;;;;;;;;;3972544;28;10001821;-69
2022/02/15 00:07:16;;;;;;;5.45;2.63;;;;;;;;;;5006426;28;20157;-70
2022/02/15 00:09:45;;;;;;;5.10;3.08;;;;;;;;;;5009872;28;20137;-68
2022/02/15 00:12:13;;;;;;;9.43;4.22;;;;;;;;;;5008423;28;20045;-69
2022/02/15 00:14:41;;;;;;;6.28;3.15;;;;;;;;;;5008844;28;20069;-69
2022/02/15 00:17:10;;;;;;;5.63;3.13;;;;;;;;;;5008064;28;20135;-68
2022/02/15 00:19:38;;;;;;;5.75;3.38;;;;;;;;;;5007895;28;20136;-68
2022/02/15 00:22:06;;;;;;;6.30;3.30;;;;;;;;;;5006030;28;20064;-68
2022/02/15 00:24:36;;;;;;;7.78;3.85;;;;;;;;;;5009239;28;20145;-68
2022/02/15 00:27:04;;;;;;;8.57;3.53;;;;;;;;;;5007887;28;20042;-69
2022/02/15 00:29:32;;;;;;;9.77;3.70;;;;;;;;;;5008038;28;20565;-69
2022/02/15 00:32:01;;;;;;;8.25;3.55;;;;;;;;;;5008053;28;20136;-69
2022/02/15 00:34:29;;;;;;;9.38;4.25;;;;;;;;;;5010311;28;20081;-68
2022/02/15 00:36:57;;;;;;;6.90;3.28;;;;;;;;;;5007889;28;20077;-69
2022/02/15 00:39:25;;;;;;;6.28;3.40;;;;;;;;;;5007342;28;20076;-69
2022/02/15 00:41:55;;;;;;;9.85;3.95;;;;;;;;;;5004579;28;20057;-69
2022/02/15 00:44:23;;;;;;;6.93;3.40;;;;;;;;;;5004479;28;20461;-72
2022/02/15 00:46:52;;;;;;;6.30;3.45;;;;;;;;;;5006796;28;20070;-69
2022/02/15 00:49:21;;;;;;;7.82;3.35;;;;;;;;;;5005207;28;20149;-69
2022/02/15 00:51:49;;;;;;;5.10;2.97;;;;;;;;;;5002157;28;20065;-69
2022/02/15 00:54:18;;;;;;;5.22;3.13;;;;;;;;;;5004205;28;20050;-69
2022/02/15 00:56:46;;;;;;;6.82;3.13;;;;;;;;;;5008714;28;20133;-69
2022/02/15 00:59:16;;;;;;;4.93;3.00;;;;;;;;;;4993861;28;20093;-69
2022/02/15 01:01:44;;;;;;;5.35;2.70;;;;;;;;;;4991654;28;20105;-68
2022/02/15 01:04:12;;;;;;;7.95;2.67;;;;;;;;;;4989840;28;20501;-70
2022/02/15 01:06:41;;;;;;;7.03;3.20;;;;;;;;;;4992299;28;20454;-68
2022/02/15 01:09:10;;;;;;;5.75;3.28;;;;;;;;;;4992720;28;20133;-69
2022/02/15 01:11:38;;;;;;;4.72;2.88;;;;;;;;;;4992824;28;20050;-69
2022/02/15 01:14:07;;;;;;;5.63;3.05;;;;;;;;;;4991259;28;20145;-70
2022/02/15 01:16:40;;;;;;;8.20;3.78;;;;;;;;;;4988779;28;20520;-69
2022/02/15 01:19:08;;;;;;;5.65;3.03;;;;;;;;;;4993069;28;20078;-68
2022/02/15 01:21:56;;;;;;;5.70;3.03;;;;;;;;;;4992361;28;20100;-69
2022/02/15 01:24:24;;;;;;;7.75;3.70;;;;;;;;;;4991543;28;20132;-72
2022/02/15 01:27:22;;;;;;;5.90;3.08;;;;;;;;;;4992279;28;20563;-69
2022/02/15 01:29:50;;;;;;;6.03;3.33;;;;;;;;;;4990866;28;20125;-69
2022/02/15 01:32:19;;;;;;;5.68;2.80;;;;;;;;;;4992898;28;20050;-69
2022/02/15 01:34:48;;;;;;;7.97;3.22;;;;;;;;;;4990549;28;20078;-70
2022/02/15 01:37:17;;;;;;;4.47;2.60;;;;;;;;;;4995317;28;20052;-70
2022/02/15 01:39:45;;;;;;;5.80;2.85;;;;;;;;;;4989668;28;20137;-69
2022/02/15 01:42:29;;;;;;;9.73;3.03;;;;;;;;;;4992823;28;20137;-69
2022/02/15 01:44:57;;;;;;;4.88;2.88;;;;;;;;;;4991304;28;20134;-70
2022/02/15 01:47:27;;;;;;;9.50;3.47;;;;;;;;;;4990418;28;20057;-69
2022/02/15 01:49:55;;;;;;;5.40;2.65;;;;;;;;;;4991530;28;20508;-69
2022/02/15 01:52:30;;;;;;;4.78;2.70;;;;;;;;;;4990905;28;20082;-69
2022/02/15 01:54:59;;;;;;;5.65;2.88;;;;;;;;;;4991420;28;20086;-69
2022/02/15 01:57:27;;;;;;;6.05;2.97;;;;;;;;;;4993215;28;20064;-71
2022/02/15 01:59:57;;;;;;;5.03;2.58;;;;;;;;;;5011439;28;20054;-69
2022/02/15 02:02:27;;;;;;;6.50;2.63;;;;;;;;;;5009984;28;20100;-70
2022/02/15 02:07:42;;;;;;;5.15;2.70;;;;;;;;;;5008194;28;20465;-72
2022/02/15 02:10:11;;;;;;;4.03;2.17;;;;;;;;;;5010756;28;20081;-69
2022/02/15 02:12:40;;;;;;;5.82;2.88;;;;;;;;;;5010727;28;20144;-69
2022/02/15 02:15:10;;;;;;;5.85;2.88;;;;;;;;;;5010869;28;20129;-68
2022/02/15 02:17:39;;;;;;;4.32;2.67;;;;;;;;;;5009914;28;20084;-69
2022/02/15 02:20:08;;;;;;;4.70;2.28;;;;;;;;;;5012227;28;20573;-69
2022/02/15 02:22:40;;;;;;;4.30;2.10;;;;;;;;;;5010687;28;20045;-68
2022/02/15 02:25:09;;;;;;;5.20;2.50;;;;;;;;;;5008390;28;20137;-69
2022/02/15 02:27:39;;;;;;;6.03;2.67;;;;;;;;;;5010217;28;20057;-69
2022/02/15 02:30:08;;;;;;;5.85;2.65;;;;;;;;;;5012133;28;20132;-69
2022/02/15 02:32:51;;;;;;;4.25;2.30;;;;;;;;;;2181633;28;10023681;-68
2022/02/15 02:35:20;;;;;;;3.95;2.13;;;;;;;;;;3627035;28;10001356;-68
2022/02/15 02:37:50;;;;;;;6.70;2.78;;;;;;;;;;5008864;28;20054;-69
2022/02/15 02:40:19;;;;;;;5.82;2.67;;;;;;;;;;5010619;28;20129;-68
2022/02/15 02:42:47;;;;;;;5.63;3.00;;;;;;;;;;5010098;28;20053;-69
2022/02/15 02:45:18;;;;;;;6.20;2.88;;;;;;;;;;5007804;28;20069;-68
2022/02/15 02:47:47;;;;;;;4.95;2.60;;;;;;;;;;5009757;28;20435;-71
2022/02/15 02:50:17;;;;;;;4.70;2.40;;;;;;;;;;5010307;28;20488;-69
2022/02/15 02:52:45;;;;;;;5.72;2.50;;;;;;;;;;5009879;28;20123;-69
2022/02/15 02:55:15;;;;;;;4.15;2.50;;;;;;;;;;5010393;28;20081;-68
2022/02/15 02:57:43;;;;;;;6.60;2.45;;;;;;;;;;5006627;28;20129;-68
2022/02/15 03:00:13;;;;;;;8.07;2.60;;;;;;;;;;5010693;28;20089;-69
2022/02/15 03:02:41;;;;;;;4.25;2.38;;;;;;;;;;5010720;28;20056;-69
2022/02/15 03:05:10;;;;;;;6.90;3.45;;;;;;;;;;5009251;28;20049;-69
2022/02/15 03:07:38;;;;;;;5.80;2.72;;;;;;;;;;5007864;28;20085;-68
2022/02/15 03:10:07;;;;;;;4.18;2.40;;;;;;;;;;5009852;28;20041;-68
2022/02/15 03:12:36;;;;;;;6.15;2.25;;;;;;;;;;5007578;28;20143;-69
2022/02/15 03:15:05;;;;;;;4.85;1.88;;;;;;;;;;5010106;28;20125;-68
2022/02/15 03:17:33;;;;;;;4.90;2.72;;;;;;;;;;5009951;28;20133;-68
2022/02/15 03:20:22;;;;;;;6.90;2.50;;;;;;;;;;5009435;28;20077;-68
2022/02/15 03:22:51;;;;;;;3.55;1.90;;;;;;;;;;5009034;28;20224;-68
2022/02/15 03:25:19;;;;;;;5.30;2.53;;;;;;;;;;5009943;28;20128;-68
2022/02/15 03:27:49;;;;;;;4.72;2.08;;;;;;;;;;5007553;28;20568;-68
2022/02/15 03:30:17;;;;;;;8.15;2.47;;;;;;;;;;5006232;28;20042;-69
2022/02/15 03:32:45;;;;;;;5.13;2.33;;;;;;;;;;5009905;28;20494;-69
2022/02/15 03:35:13;;;;;;;4.13;2.15;;;;;;;;;;5009298;28;20144;-69
2022/02/15 03:37:42;;;;;;;4.45;2.35;;;;;;;;;;5007825;28;20073;-69
2022/02/15 03:40:10;;;;;;;5.80;2.53;;;;;;;;;;5007748;28;20060;-71
2022/02/15 03:45:26;;;;;;;4.18;2.25;;;;;;;;;;5006978;28;20133;-70
2022/02/15 03:47:55;;;;;;;4.97;2.45;;;;;;;;;;5003901;28;20053;-69
2022/02/15 03:53:46;;;;;;;3.63;1.95;;;;;;;;;;5008979;28;20088;-68
2022/02/15 03:56:15;;;;;;;3.65;1.70;;;;;;;;;;5008209;28;20077;-69
2022/02/15 03:58:43;;;;;;;3.70;2.00;;;;;;;;;;5006596;28;20141;-69
2022/02/15 04:01:12;;;;;;;4.05;1.92;;;;;;;;;;5011114;28;20077;-69
2022/02/15 04:03:41;;;;;;;3.97;1.77;;;;;;;;;;5008040;28;20140;-70
2022/02/15 04:06:09;;;;;;;4.35;1.40;;;;;;;;;;5007368;28;20076;-69
2022/02/15 04:08:37;;;;;;;2.33;1.48;;;;;;;;;;5007286;28;20054;-69
2022/02/15 04:11:07;;;;;;;1.90;1.35;;;;;;;;;;5007323;28;20157;-69
2022/02/15 04:13:36;;;;;;;3.55;1.85;;;;;;;;;;5005544;28;20050;-68
2022/02/15 04:16:08;;;;;;;2.65;1.60;;;;;;;;;;5006206;28;20462;-69
2022/02/15 04:18:43;;;;;;;4.03;1.60;;;;;;;;;;5007031;28;20159;-69
2022/02/15 04:21:13;;;;;;;5.13;2.30;;;;;;;;;;5006213;28;20424;-70
2022/02/15 04:23:41;;;;;;;5.03;1.70;;;;;;;;;;5007538;28;20144;-72
2022/02/15 04:26:10;;;;;;;4.32;1.77;;;;;;;;;;5004738;28;20041;-69
2022/02/15 04:28:38;;;;;;;4.45;1.60;;;;;;;;;;5008472;28;20068;-70
2022/02/15 04:31:06;;;;;;;6.70;1.70;;;;;;;;;;5005202;28;20089;-69
2022/02/15 04:33:35;;;;;;;2.20;1.45;;;;;;;;;;5004928;28;20042;-69
2022/02/15 04:36:07;;;;;;;3.47;1.65;;;;;;;;;;5003680;28;20052;-69
2022/02/15 04:38:35;;;;;;;4.68;1.73;;;;;;;;;;5004359;28;20577;-69
2022/02/15 04:41:06;;;;;;;3.53;1.70;;;;;;;;;;5004345;28;20072;-69
2022/02/15 04:43:34;;;;;;;5.90;1.63;;;;;;;;;;5004764;28;20580;-69
2022/02/15 04:46:05;;;;;;;5.63;1.33;;;;;;;;;;4974237;28;20238;-70
2022/02/15 04:48:48;;;;;;;3.28;1.38;;;;;;;;;;2514257;28;10004242;-69
2022/02/15 04:51:18;;;;;;;2.72;1.60;;;;;;;;;;3626835;28;10001402;-69
2022/02/15 04:53:46;;;;;;;5.93;1.75;;;;;;;;;;5007324;28;20082;-69
2022/02/15 04:56:15;;;;;;;3.65;1.52;;;;;;;;;;5007321;28;20164;-72
2022/02/15 04:58:43;;;;;;;2.92;1.38;;;;;;;;;;5007701;28;20058;-69
2022/02/15 05:01:13;;;;;;;5.38;1.60;;;;;;;;;;5004411;28;20052;-69
2022/02/15 05:03:41;;;;;;;2.33;1.40;;;;;;;;;;5006353;28;20056;-69
2022/02/15 05:06:11;;;;;;;3.17;1.30;;;;;;;;;;5008667;28;20045;-70
2022/02/15 05:08:41;;;;;;;2.85;1.10;;;;;;;;;;5008180;28;20224;-70
2022/02/15 05:11:09;;;;;;;2.90;1.65;;;;;;;;;;5002563;28;20053;-68
2022/02/15 05:13:37;;;;;;;4.18;1.67;;;;;;;;;;5011866;28;20145;-69
2022/02/15 05:16:08;;;;;;;2.03;1.33;;;;;;;;;;5006685;28;20509;-68
2022/02/15 05:18:36;;;;;;;3.33;1.48;;;;;;;;;;5007115;28;20136;-69
2022/02/15 05:21:08;;;;;;;3.97;1.92;;;;;;;;;;5007131;28;20136;-69
2022/02/15 05:23:36;;;;;;;2.55;1.10;;;;;;;;;;5005654;28;20418;-69
2022/02/15 05:26:09;;;;;;;2.15;1.33;;;;;;;;;;5007323;28;20144;-68
2022/02/15 05:28:37;;;;;;;3.20;1.17;;;;;;;;;;5006132;28;20077;-68
2022/02/15 05:31:09;;;;;;;4.03;1.27;;;;;;;;;;5007885;28;20125;-69
2022/02/15 05:33:37;;;;;;;4.13;1.50;;;;;;;;;;5006933;28;20053;-68
2022/02/15 05:36:06;;;;;;;6.80;1.27;;;;;;;;;;5005062;28;20412;-69
2022/02/15 05:38:34;;;;;;;3.55;1.15;;;;;;;;;;5001699;28;20125;-68
2022/02/15 05:41:05;;;;;;;2.67;1.42;;;;;;;;;;5005573;28;20141;-69
2022/02/15 05:43:34;;;;;;;2.50;1.20;;;;;;;;;;5008744;28;20074;-68
2022/02/15 05:46:05;;;;;;;2.55;1.20;;;;;;;;;;5011077;28;20096;-69
2022/02/15 05:48:33;;;;;;;1.55;0.90;;;;;;;;;;5011127;28;20108;-69
2022/02/15 05:51:01;;;;;;;4.18;1.08;;;;;;;;;;5006393;28;20152;-70
2022/02/15 05:53:46;;;;;;;1.93;1.00;;;;;;;;;;4351739;28;10001442;-69
2022/02/15 05:56:14;;;;;;;5.35;1.10;;;;;;;;;;1379106;28;10002058;-69
2022/02/15 05:58:44;;;;;;;2.08;0.85;;;;;;;;;;5007603;28;20410;-68
2022/02/15 06:01:18;;;;;;;4.13;1.17;;;;;;;;;;5008249;28;20258;-68
2022/02/15 06:06:33;;;;;;;5.65;1.20;;;;;;;;;;5005966;28;20129;-68
2022/02/15 06:09:02;;;;;;;2.33;1.13;;;;;;;;;;5007218;28;20064;-68
2022/02/15 06:11:30;;;;;;;2.63;1.00;;;;;;;;;;5006839;28;20089;-69
2022/02/15 06:14:00;;;;;;;3.00;1.10;;;;;;;;;;5009197;28;20584;-70
2022/02/15 06:16:28;;;;;;;2.17;1.10;;;;;;;;;;5009039;28;20340;-70
2022/02/15 06:18:57;;;;;;;4.50;1.00;;;;;;;;;;5004962;28;20592;-69
2022/02/15 06:21:25;;;;;;;2.10;1.00;;;;;;;;;;5007092;28;20073;-70
2022/02/15 06:23:54;;;;;;;1.85;1.02;;;;;;;;;;5010186;28;20096;-68
2022/02/15 06:26:22;;;;;;;4.45;1.13;;;;;;;;;;5010623;28;20133;-68
2022/02/15 06:28:51;;;;;;;3.17;1.10;;;;;;;;;;5010138;28;20066;-68
2022/02/15 06:31:20;;;;;;;1.92;1.10;;;;;;;;;;5011744;28;20056;-69
2022/02/15 06:33:48;;;;;;;4.55;1.20;;;;;;;;;;5016768;28;20138;-70
2022/02/15 06:36:17;;;;;;;2.08;1.13;;;;;;;;;;5009019;28;20062;-68
2022/02/15 06:38:45;;;;;;;1.67;1.00;;;;;;;;;;5010430;28;20069;-68
2022/02/15 06:41:14;;;;;;;3.70;1.10;;;;;;;;;;5004490;28;20046;-68
2022/02/15 06:43:42;;;;;;;4.15;1.35;;;;;;;;;;5007588;28;20141;-68
2022/02/15 06:46:10;;;;;;;4.85;1.60;;;;;;;;;;5009965;28;20077;-69
2022/02/15 06:48:40;;;;;;;4.00;1.30;;;;;;;;;;5010538;28;20438;-68
2022/02/15 06:51:08;;;;;;;2.40;0.98;;;;;;;;;;5010254;28;20125;-68
2022/02/15 06:53:37;;;;;;;2.03;0.90;;;;;;;;;;5010344;28;20507;-68
2022/02/15 06:56:09;;;;;;;5.43;1.17;;;;;;;;;;5009943;28;20050;-69
2022/02/15 06:58:40;;;;;;;2.25;1.00;;;;;;;;;;4661895;28;10000722;-69
2022/02/15 07:01:09;;;;;;;4.97;1.38;;;;;;;;;;688005;28;10002027;-68
2022/02/15 07:03:37;;;;;;;2.60;1.10;;;;;;;;;;5011024;28;20041;-68
2022/02/15 07:06:10;;;;;;;2.17;1.15;;;;;;;;;;5008704;28;20317;-68
2022/02/15 07:08:38;;;;;;;3.92;1.42;;;;;;;;;;5008648;28;20081;-68
2022/02/15 07:11:07;;;;;;;3.55;1.88;;;;;;;;;;5006295;28;20160;-68
2022/02/15 07:13:35;;;;;;;3.47;1.33;;;;;;;;;;5009649;28;20116;-68
2022/02/15 07:16:07;;;;;;;3.53;1.42;;;;;;;;;;5010652;28;20121;-68
2022/02/15 07:18:35;;;;;;;3.55;1.20;;;;;;;;;;5010216;28;20470;-68
2022/02/15 07:21:06;;;;;;;6.68;1.33;;;;;;;;;;5009578;28;20080;-68
2022/02/15 07:23:35;;;;;;;5.65;1.25;;;;;;;;;;5003956;28;20042;-68
2022/02/15 07:26:07;;;;;;;2.20;1.10;;;;;;;;;;5009078;28;20509;-70
2022/02/15 07:28:40;;;;;;;3.70;0.95;;;;;;;;;;5008066;28;20068;-68
2022/02/15 07:31:09;;;;;;;4.88;1.30;;;;;;;;;;5007664;28;20510;-69
2022/02/15 07:33:37;;;;;;;2.58;1.13;;;;;;;;;;5011087;28;20049;-69
2022/02/15 07:36:06;;;;;;;2.15;1.30;;;;;;;;;;5007958;28;20076;-68
2022/02/15 07:38:36;;;;;;;2.20;1.02;;;;;;;;;;5007292;28;20057;-68
2022/02/15 07:41:07;;;;;;;4.13;1.58;;;;;;;;;;5007579;28;20042;-68
2022/02/15 07:43:36;;;;;;;4.75;1.70;;;;;;;;;;5010384;28;20108;-68
2022/02/15 07:46:08;;;;;;;1.48;1.00;;;;;;;;;;5007205;28;20050;-70
2022/02/15 07:48:36;;;;;;;2.22;1.15;;;;;;;;;;5009343;28;20125;-69
2022/02/15 07:51:08;;;;;;;1.45;1.13;;;;;;;;;;5010476;28;20085;-69
2022/02/15 07:53:38;;;;;;;4.82;1.15;;;;;;;;;;5000963;28;20042;-68
2022/02/15 07:56:06;;;;;;;5.80;1.60;;;;;;;;;;5011105;28;20073;-68
2022/02/15 07:58:35;;;;;;;5.15;1.40;;;;;;;;;;5012225;28;20050;-68
2022/02/15 08:01:07;;;;;;;2.90;1.30;;;;;;;;;;5011286;28;20103;-68
2022/02/15 08:03:38;;;;;;;5.40;1.30;;;;;;;;;;5005847;28;20457;-68
2022/02/15 08:06:09;;;;;;;3.45;1.23;;;;;;;;;;5008503;28;20065;-68
2022/02/15 08:08:40;;;;;;;7.75;1.80;;;;;;;;;;5008876;28;20072;-68
2022/02/15 08:11:08;;;;;;;5.45;2.00;;;;;;;;;;5002858;28;20504;-68
2022/02/15 08:13:42;;;;;;;3.47;1.85;;;;;;;;;;5004674;28;20052;-68
2022/02/15 08:16:11;;;;;;;6.65;1.75;;;;;;;;;;5008763;28;20049;-68
2022/02/15 08:18:41;;;;;;;4.10;1.90;;;;;;;;;;5009077;28;20120;-68
2022/02/15 08:21:10;;;;;;;5.80;1.80;;;;;;;;;;5008501;28;20543;-68
2022/02/15 08:24:01;;;;;;;4.55;1.85;;;;;;;;;;5006743;28;20100;-68
2022/02/15 08:26:31;;;;;;;6.95;2.20;;;;;;;;;;5007474;28;20487;-69
2022/02/15 08:29:00;;;;;;;7.45;1.80;;;;;;;;;;5008611;28;20401;-68
2022/02/15 08:31:29;;;;;;;4.20;2.10;;;;;;;;;;5004319;28;20508;-69
2022/02/15 08:33:58;;;;;;;3.28;1.75;;;;;;;;;;5008032;28;20054;-68
2022/02/15 08:36:26;;;;;;;4.20;1.73;;;;;;;;;;5006437;28;21458;-69
2022/02/15 08:38:55;;;;;;;2.83;1.63;;;;;;;;;;5009016;28;20160;-68
2022/02/15 08:41:39;;;;;;;2.85;1.45;;;;;;;;;;2080638;28;10023852;-68
2022/02/15 08:44:08;;;;;;;4.05;1.92;;;;;;;;;;3625235;28;10001131;-69
2022/02/15 08:46:37;;;;;;;5.43;2.15;;;;;;;;;;5007922;28;20046;-69
2022/02/15 08:49:06;;;;;;;3.95;2.20;;;;;;;;;;5006506;28;20042;-69
2022/02/15 08:51:37;;;;;;;4.68;2.28;;;;;;;;;;5008317;28;20695;-69
2022/02/15 08:54:06;;;;;;;4.90;2.67;;;;;;;;;;5002616;28;20105;-68
2022/02/15 08:56:34;;;;;;;5.18;2.22;;;;;;;;;;5002835;28;20052;-69
2022/02/15 08:59:04;;;;;;;4.00;2.40;;;;;;;;;;5007625;28;20042;-69
2022/02/15 09:01:33;;;;;;;3.83;1.70;;;;;;;;;;5008106;28;20053;-68
2022/02/15 09:04:02;;;;;;;5.75;2.47;;;;;;;;;;5003883;28;20441;-69
2022/02/15 09:06:38;;;;;;;3.67;1.90;;;;;;;;;;5007542;28;20567;-69
2022/02/15 09:09:06;;;;;;;5.20;1.85;;;;;;;;;;5006107;28;20049;-69
2022/02/15 09:11:35;;;;;;;2.17;1.60;;;;;;;;;;5007983;28;20050;-70
2022/02/15 09:14:06;;;;;;;4.28;1.90;;;;;;;;;;5009516;28;20042;-70
2022/02/15 09:16:36;;;;;;;4.13;2.20;;;;;;;;;;5006679;28;20450;-69
2022/02/15 09:19:05;;;;;;;3.85;2.10;;;;;;;;;;5009991;28;20107;-69
2022/02/15 09:21:34;;;;;;;3.25;1.60;;;;;;;;;;5009517;28;21010;-70
2022/02/15 09:24:04;;;;;;;2.55;1.50;;;;;;;;;;5011493;28;20046;-70
2022/02/15 09:26:33;;;;;;;3.35;1.80;;;;;;;;;;5009435;28;20056;-69
2022/02/15 09:29:03;;;;;;;2.42;1.35;;;;;;;;;;5011547;28;20421;-69
2022/02/15 09:31:33;;;;;;;3.13;1.42;;;;;;;;;;5011927;28;20498;-69
2022/02/15 09:34:03;;;;;;;3.97;1.58;;;;;;;;;;5012133;28;20060;-70
2022/02/15 09:36:32;;;;;;;5.78;1.30;;;;;;;;;;5010200;28;20052;-70
2022/02/15 09:39:01;;;;;;;3.35;1.35;;;;;;;;;;5010150;28;20045;-71
2022/02/15 09:41:33;;;;;;;1.63;0.90;;;;;;;;;;5010604;28;20053;-69
2022/02/15 09:44:02;;;;;;;3.97;1.27;;;;;;;;;;5010634;28;20437;-70
2022/02/15 09:46:33;;;;;;;3.15;0.90;;;;;;;;;;5009631;28;20140;-69
2022/02/15 09:49:03;;;;;;;3.25;1.10;;;;;;;;;;5010605;28;20088;-70
2022/02/15 09:51:31;;;;;;;4.70;0.90;;;;;;;;;;5011134;28;20112;-69
2022/02/15 09:54:03;;;;;;;3.20;1.20;;;;;;;;;;5010148;28;20556;-70
2022/02/15 09:56:32;;;;;;;4.53;1.20;;;;;;;;;;5009205;28;20057;-69
2022/02/15 09:59:03;;;;;;;2.63;0.90;;;;;;;;;;5009978;28;20142;-70
2022/02/15 10:01:34;;;;;;;1.73;0.70;;;;;;;;;;5007988;28;20481;-70
2022/02/15 10:04:08;;;;;;;1.73;0.70;;;;;;;;;;5007765;28;20049;-70
2022/02/15 10:06:40;;;;;;;1.58;1.00;;;;;;;;;;5006859;28;20498;-70
2022/02/15 10:09:09;;;;;;;4.35;1.00;;;;;;;;;;5006289;28;20046;-72
2022/02/15 10:11:39;;;;;;;3.03;1.33;;;;;;;;;;5007911;28;20049;-73
2022/02/15 10:14:08;;;;;;;2.67;1.00;;;;;;;;;;5007057;28;20060;-70
2022/02/15 10:16:47;;;;;;;1.00;0.50;;;;;;;;;;5008165;28;20046;-70
2022/02/15 10:19:22;;;;;;;2.03;1.00;;;;;;;;;;5009018;28;20042;-73
2022/02/15 10:21:54;;;;;;;1.83;0.75;;;;;;;;;;5013789;28;20108;-70
2022/02/15 10:24:23;;;;;;;2.08;0.82;;;;;;;;;;5010447;28;20401;-70
2022/02/15 10:26:59;;;;;;;2.75;0.80;;;;;;;;;;5009618;28;20069;-71
2022/02/15 10:29:28;;;;;;;2.25;0.90;;;;;;;;;;5009366;28;20049;-70
2022/02/15 10:32:20;;;;;;;0.40;0.40;;;;;;;;;;4155642;28;10002036;-70
2022/02/15 10:34:49;;;;;;;1.00;0.90;;;;;;;;;;2070535;28;10001973;-69
2022/02/15 10:37:19;;;;;;;1.70;0.75;;;;;;;;;;5008764;28;20050;-70
2022/02/15 10:39:49;;;;;;;4.13;1.08;;;;;;;;;;5008894;28;20054;-70
2022/02/15 10:42:21;;;;;;;2.75;0.85;;;;;;;;;;5009195;28;20254;-70
2022/02/15 10:44:51;;;;;;;1.13;0.80;;;;;;;;;;5007460;28;20054;-70
2022/02/15 10:47:22;;;;;;;1.83;1.00;;;;;;;;;;5009717;28;20502;-70
2022/02/15 10:49:56;;;;;;;1.73;0.93;;;;;;;;;;5008663;28;20081;-71
2022/02/15 10:52:25;;;;;;;3.33;1.10;;;;;;;;;;5006259;28;20081;-69
2022/02/15 10:54:54;;;;;;;1.15;0.90;;;;;;;;;;5010329;28;20052;-70
2022/02/15 10:57:25;;;;;;;1.55;1.00;;;;;;;;;;5008539;28;20050;-70
2022/02/15 10:59:54;;;;;;;2.70;1.05;;;;;;;;;;5015041;28;20054;-70
2022/02/15 11:02:26;;;;;;;2.40;1.13;;;;;;;;;;5010084;28;20100;-70
2022/02/15 11:04:56;;;;;;;2.03;1.10;;;;;;;;;;5010236;28;20084;-70
2022/02/15 11:07:25;;;;;;;1.50;1.10;;;;;;;;;;5007028;28;20054;-70
2022/02/15 11:10:00;;;;;;;2.92;1.33;;;;;;;;;;5010508;28;20042;-70
2022/02/15 11:12:29;;;;;;;;;;;;;;;;;;5010089;28;20069;-71
2022/02/15 11:15:01;;;;;;;1.77;1.20;;;;;;;;;;5009417;28;19928;-70
2022/02/15 11:17:31;;;;;;;2.05;1.15;;;;;;;;;;5007641;28;20098;-70
2022/02/15 11:20:01;;;;;;;1.80;1.10;;;;;;;;;;5006746;28;20061;-70
2022/02/15 11:22:30;;;;;;;3.25;1.35;;;;;;;;;;4996728;28;20530;-73
2022/02/15 11:24:58;;;;;;;2.28;1.20;;;;;;;;;;5000950;28;20132;-72
2022/02/15 11:27:27;;;;;;;4.40;1.45;;;;;;;;;;4995208;28;20421;-72
2022/02/15 11:29:56;;;;;;;2.00;1.15;;;;;;;;;;4996919;28;20486;-70
2022/02/15 11:32:29;;;;;;;1.80;1.15;;;;;;;;;;5003824;28;20116;-70
2022/02/15 11:35:09;;;;;;;3.17;1.27;;;;;;;;;;5010076;28;20053;-70
2022/02/15 11:37:38;;;;;;;3.15;1.65;;;;;;;;;;5002738;28;20494;-70
2022/02/15 11:40:08;;;;;;;2.60;1.35;;;;;;;;;;5004703;28;20046;-69
2022/02/15 11:42:46;;;;;;;2.72;1.30;;;;;;;;;;5008196;28;20050;-71
2022/02/15 11:45:18;;;;;;;3.92;1.38;;;;;;;;;;5009424;28;20054;-70
2022/02/15 11:47:48;;;;;;;3.55;1.63;;;;;;;;;;5004913;28;20555;-70
2022/02/15 11:50:18;;;;;;;3.13;1.35;;;;;;;;;;5010697;28;20076;-69
2022/02/15 11:52:48;;;;;;;4.80;1.25;;;;;;;;;;5010687;28;20042;-70
2022/02/15 11:55:19;;;;;;;3.17;1.63;;;;;;;;;;5012547;28;20046;-70
2022/02/15 11:57:48;;;;;;;3.20;1.63;;;;;;;;;;5008555;28;20057;-70
2022/02/15 12:00:17;;;;;;;2.47;1.50;;;;;;;;;;5009972;28;20058;-69
2022/02/15 12:02:59;;;;;;;2.30;1.30;;;;;;;;;;717451;28;10002342;-69
2022/02/15 12:05:30;;;;;;;2.50;1.40;;;;;;;;;;5009850;28;20176;-69
2022/02/15 12:08:00;;;;;;;3.90;1.80;;;;;;;;;;5004980;28;20049;-70
2022/02/15 12:10:35;;;;;;;2.88;1.65;;;;;;;;;;5005713;28;20085;-71
2022/02/15 12:13:04;;;;;;;2.35;1.50;;;;;;;;;;5007966;28;20140;-70
2022/02/15 12:15:37;;;;;;;2.65;1.95;;;;;;;;;;5008734;28;20073;-73
2022/02/15 12:18:05;;;;;;;3.47;1.80;;;;;;;;;;4993496;28;20100;-69
2022/02/15 12:20:36;;;;;;;3.80;2.08;;;;;;;;;;5007526;28;20069;-69
2022/02/15 12:23:05;;;;;;;4.03;2.17;;;;;;;;;;5006245;28;20494;-69
2022/02/15 12:25:43;;;;;;;4.40;2.28;;;;;;;;;;5004228;28;20486;-69
2022/02/15 12:28:13;;;;;;;4.22;2.10;;;;;;;;;;4992376;28;20054;-71
2022/02/15 12:30:45;;;;;;;4.22;1.73;;;;;;;;;;5008089;28;20058;-70
2022/02/15 12:33:14;;;;;;;5.93;2.30;;;;;;;;;;5007399;28;20061;-73
2022/02/15 12:35:45;;;;;;;3.45;2.08;;;;;;;;;;5007173;28;20061;-70
2022/02/15 12:38:14;;;;;;;3.80;2.13;;;;;;;;;;5008384;28;20053;-70
2022/02/15 12:40:43;;;;;;;3.08;1.80;;;;;;;;;;5005635;28;20050;-69
2022/02/15 12:43:12;;;;;;;2.60;1.60;;;;;;;;;;5004430;28;20046;-70
2022/02/15 12:45:45;;;;;;;4.65;2.47;;;;;;;;;;4998544;28;20058;-69
2022/02/15 12:48:14;;;;;;;4.57;2.35;;;;;;;;;;4996558;28;20096;-70
2022/02/15 12:50:43;;;;;;;5.35;2.38;;;;;;;;;;4996320;28;20050;-73
2022/02/15 12:53:13;;;;;;;6.53;2.47;;;;;;;;;;5002626;28;20119;-70
2022/02/15 12:55:42;;;;;;;4.22;2.20;;;;;;;;;;5005734;28;20660;-70
2022/02/15 12:58:14;;;;;;;4.10;2.65;;;;;;;;;;5004626;28;20065;-73
2022/02/15 13:00:43;;;;;;;3.92;2.42;;;;;;;;;;5007338;28;20549;-71
2022/02/15 13:03:18;;;;;;;6.18;2.78;;;;;;;;;;5003225;28;20042;-72
2022/02/15 13:05:47;;;;;;;4.05;2.42;;;;;;;;;;5008811;28;20137;-72
2022/02/15 13:08:19;;;;;;;4.78;2.08;;;;;;;;;;5009995;28;20469;-69
2022/02/15 13:10:57;;;;;;;4.10;2.40;;;;;;;;;;5010954;28;20053;-69
2022/02/15 13:13:27;;;;;;;5.72;2.65;;;;;;;;;;5003979;28;20069;-69
2022/02/15 13:15:56;;;;;;;3.75;2.20;;;;;;;;;;5010156;28;20045;-70
2022/02/15 13:18:25;;;;;;;5.95;2.67;;;;;;;;;;5011185;28;20115;-68
2022/02/15 13:20:54;;;;;;;4.65;2.53;;;;;;;;;;5011480;28;20125;-68
2022/02/15 13:23:25;;;;;;;5.45;2.80;;;;;;;;;;5010742;28;20406;-68
2022/02/15 13:25:55;;;;;;;5.45;2.90;;;;;;;;;;5011689;28;20053;-68
2022/02/15 13:28:27;;;;;;;5.25;2.97;;;;;;;;;;5011642;28;20069;-69
2022/02/15 13:31:01;;;;;;;5.25;2.88;;;;;;;;;;5012207;28;20101;-68
2022/02/15 13:33:40;;;;;;;6.63;3.28;;;;;;;;;;5010359;28;20053;-69
2022/02/15 13:36:12;;;;;;;5.55;2.70;;;;;;;;;;5003945;28;20057;-67
2022/02/15 13:38:42;;;;;;;3.65;2.38;;;;;;;;;;5009440;28;20053;-69
2022/02/15 13:41:10;;;;;;;4.82;2.90;;;;;;;;;;4994073;28;20160;-72
2022/02/15 13:43:41;;;;;;;7.90;2.92;;;;;;;;;;4987175;28;20058;-70
2022/02/15 13:46:10;;;;;;;5.97;2.85;;;;;;;;;;4986527;28;20073;-70
2022/02/15 13:48:38;;;;;;;5.10;3.00;;;;;;;;;;4984992;28;20061;-70
2022/02/15 13:51:07;;;;;;;5.82;3.08;;;;;;;;;;4997138;28;20112;-71
2022/02/15 13:53:35;;;;;;;5.20;2.70;;;;;;;;;;5001451;28;20050;-69
2022/02/15 13:56:08;;;;;;;5.00;3.00;;;;;;;;;;5000720;28;20049;-72
2022/02/15 13:58:37;;;;;;;5.32;2.88;;;;;;;;;;5004168;28;20065;-69
2022/02/15 14:01:09;;;;;;;6.20;2.50;;;;;;;;;;5003695;28;20068;-72
2022/02/15 14:03:38;;;;;;;3.60;2.33;;;;;;;;;;5002530;28;20572;-69
2022/02/15 14:06:07;;;;;;;8.85;2.95;;;;;;;;;;5007268;28;20048;-69
2022/02/15 14:08:46;;;;;;;;;;;;;;;;;;3933587;28;10002030;-69
2022/02/15 14:11:17;;;;;;;4.22;2.50;;;;;;;;;;1726705;28;10002180;-70
2022/02/15 14:13:47;;;;;;;6.05;2.90;;;;;;;;;;5005991;28;20050;-69
2022/02/15 14:16:16;;;;;;;5.03;2.42;;;;;;;;;;5008615;28;20136;-72
2022/02/15 14:18:45;;;;;;;5.68;2.75;;;;;;;;;;5009337;28;20588;-69
2022/02/15 14:21:14;;;;;;;2.78;1.85;;;;;;;;;;5010427;28;20056;-71
2022/02/15 14:23:44;;;;;;;2.90;1.80;;;;;;;;;;5004527;28;20084;-69
2022/02/15 14:26:14;;;;;;;4.68;2.10;;;;;;;;;;5008453;28;20045;-70
2022/02/15 14:28:44;;;;;;;3.35;1.95;;;;;;;;;;5010663;28;20045;-69
2022/02/15 14:31:13;;;;;;;6.63;2.45;;;;;;;;;;5007426;28;20144;-70
2022/02/15 14:33:45;;;;;;;4.43;2.50;;;;;;;;;;5006970;28;20482;-68
2022/02/15 14:36:13;;;;;;;3.97;2.13;;;;;;;;;;5004134;28;20049;-70
2022/02/15 14:38:42;;;;;;;5.22;2.53;;;;;;;;;;5007097;28;20287;-69
2022/02/15 14:41:11;;;;;;;3.83;2.03;;;;;;;;;;5003591;28;20053;-69
2022/02/15 14:43:40;;;;;;;4.18;2.42;;;;;;;;;;5009321;28;20061;-69
2022/02/15 14:46:09;;;;;;;4.03;2.17;;;;;;;;;;5009206;28;20490;-68
2022/02/15 14:48:39;;;;;;;4.85;2.70;;;;;;;;;;5009222;28;20053;-68
2022/02/15 14:51:08;;;;;;;4.28;2.38;;;;;;;;;;5007275;28;20052;-68
2022/02/15 14:53:36;;;;;;;4.65;2.60;;;;;;;;;;5006211;28;20075;-72
2022/02/15 14:56:07;;;;;;;4.07;2.13;;;;;;;;;;5002619;28;20060;-71
2022/02/15 14:58:38;;;;;;;2.05;1.40;;;;;;;;;;5000564;28;20524;-69
2022/02/15 15:01:07;;;;;;;1.60;0.90;;;;;;;;;;4999978;28;20490;-69
2022/02/15 15:03:38;;;;;;;1.60;1.10;;;;;;;;;;5002762;28;20054;-69
2022/02/15 15:06:07;;;;;;;1.10;0.95;;;;;;;;;;4999243;28;20129;-69
2022/02/15 15:08:36;;;;;;;1.80;0.98;;;;;;;;;;5002726;28;20068;-68
2022/02/15 15:11:07;;;;;;;1.42;0.90;;;;;;;;;;5002163;28;20177;-68